sensor_id;sensor_type;location;lat;lon;timestamp;P1;durP1;ratioP1;P2;durP2;ratioP2
25982;SDS011;13773;48.868;10.730;2023-05-10T00:00:33;9.60;;;8.60;;
25982;SDS011;13773;48.868;10.730;2023-05-10T00:02:58;9.57;;;8.67;;
25982;SDS011;13773;48.868;10.730;2023-05-10T00:05:24;9.87;;;8.70;;
25982;SDS011;13773;48.868;10.730;2023-05-10T00:07:50;9.93;;;8.27;;
25982;SDS011;13773;48.868;10.730;2023-05-10T00:10:16;10.37;;;8.27;;
25982;SDS011;13773;48.868;10.730;2023-05-10T00:12:41;9.13;;;7.97;;
25982;SDS011;13773;48.868;10.730;2023-05-10T00:15:07;9.10;;;8.30;;
25982;SDS011;13773;48.868;10.730;2023-05-10T00:17:34;8.50;;;7.70;;
25982;SDS011;13773;48.868;10.730;2023-05-10T00:20:00;8.70;;;7.90;;
25982;SDS011;13773;48.868;10.730;2023-05-10T00:22:26;8.43;;;7.63;;
25982;SDS011;13773;48.868;10.730;2023-05-10T00:24:51;9.20;;;7.97;;
25982;SDS011;13773;48.868;10.730;2023-05-10T00:27:17;8.87;;;7.97;;
25982;SDS011;13773;48.868;10.730;2023-05-10T00:29:43;10.37;;;8.70;;
25982;SDS011;13773;48.868;10.730;2023-05-10T00:32:08;9.10;;;7.97;;
25982;SDS011;13773;48.868;10.730;2023-05-10T00:34:34;8.70;;;7.90;;
25982;SDS011;13773;48.868;10.730;2023-05-10T00:37:00;9.23;;;8.43;;
25982;SDS011;13773;48.868;10.730;2023-05-10T00:39:26;10.00;;;9.10;;
25982;SDS011;13773;48.868;10.730;2023-05-10T00:41:53;9.33;;;8.43;;
25982;SDS011;13773;48.868;10.730;2023-05-10T00:44:19;8.87;;;7.97;;
25982;SDS011;13773;48.868;10.730;2023-05-10T00:46:45;9.53;;;8.67;;
25982;SDS011;13773;48.868;10.730;2023-05-10T00:49:12;9.13;;;8.33;;
25982;SDS011;13773;48.868;10.730;2023-05-10T00:51:38;8.87;;;8.00;;
25982;SDS011;13773;48.868;10.730;2023-05-10T00:54:04;9.80;;;8.90;;
25982;SDS011;13773;48.868;10.730;2023-05-10T00:56:30;8.80;;;8.00;;
25982;SDS011;13773;48.868;10.730;2023-05-10T00:58:56;9.93;;;8.90;;
25982;SDS011;13773;48.868;10.730;2023-05-10T01:01:22;9.07;;;8.27;;
25982;SDS011;13773;48.868;10.730;2023-05-10T01:03:48;9.73;;;8.77;;
25982;SDS011;13773;48.868;10.730;2023-05-10T01:06:13;9.60;;;8.70;;
25982;SDS011;13773;48.868;10.730;2023-05-10T01:08:39;9.07;;;8.10;;
25982;SDS011;13773;48.868;10.730;2023-05-10T01:11:06;9.43;;;8.57;;
25982;SDS011;13773;48.868;10.730;2023-05-10T01:16:04;9.00;;;8.10;;
25982;SDS011;13773;48.868;10.730;2023-05-10T01:18:33;8.93;;;8.13;;
25982;SDS011;13773;48.868;10.730;2023-05-10T01:21:09;10.03;;;8.60;;
25982;SDS011;13773;48.868;10.730;2023-05-10T01:32:31;8.90;;;8.10;;
25982;SDS011;13773;48.868;10.730;2023-05-10T01:35:19;9.20;;;8.33;;
25982;SDS011;13773;48.868;10.730;2023-05-10T01:40:39;9.13;;;8.33;;
25982;SDS011;13773;48.868;10.730;2023-05-10T01:43:16;9.13;;;8.23;;
25982;SDS011;13773;48.868;10.730;2023-05-10T01:45:47;8.23;;;7.47;;
25982;SDS011;13773;48.868;10.730;2023-05-10T01:48:20;9.60;;;8.80;;
25982;SDS011;13773;48.868;10.730;2023-05-10T01:50:48;9.17;;;8.30;;
25982;SDS011;13773;48.868;10.730;2023-05-10T01:53:17;9.20;;;8.40;;
25982;SDS011;13773;48.868;10.730;2023-05-10T01:55:49;9.80;;;8.90;;
25982;SDS011;13773;48.868;10.730;2023-05-10T01:58:22;10.03;;;9.13;;
25982;SDS011;13773;48.868;10.730;2023-05-10T02:00:52;14.63;;;9.43;;
25982;SDS011;13773;48.868;10.730;2023-05-10T02:03:20;6.50;;;5.87;;
25982;SDS011;13773;48.868;10.730;2023-05-10T02:05:48;5.23;;;4.73;;
25982;SDS011;13773;48.868;10.730;2023-05-10T02:08:17;3.27;;;2.97;;
25982;SDS011;13773;48.868;10.730;2023-05-10T02:10:45;2.53;;;2.27;;
25982;SDS011;13773;48.868;10.730;2023-05-10T02:13:11;2.30;;;1.93;;
25982;SDS011;13773;48.868;10.730;2023-05-10T02:15:38;2.17;;;1.87;;
25982;SDS011;13773;48.868;10.730;2023-05-10T02:18:06;1.80;;;1.37;;
25982;SDS011;13773;48.868;10.730;2023-05-10T02:20:34;1.70;;;1.53;;
25982;SDS011;13773;48.868;10.730;2023-05-10T02:23:00;1.70;;;1.30;;
25982;SDS011;13773;48.868;10.730;2023-05-10T02:25:28;1.50;;;1.40;;
25982;SDS011;13773;48.868;10.730;2023-05-10T02:27:55;1.70;;;1.50;;
25982;SDS011;13773;48.868;10.730;2023-05-10T02:30:23;1.97;;;1.80;;
25982;SDS011;13773;48.868;10.730;2023-05-10T02:32:50;1.93;;;1.83;;
25982;SDS011;13773;48.868;10.730;2023-05-10T02:35:16;1.77;;;1.67;;
25982;SDS011;13773;48.868;10.730;2023-05-10T02:37:43;2.13;;;1.83;;
25982;SDS011;13773;48.868;10.730;2023-05-10T02:40:10;2.03;;;1.73;;
25982;SDS011;13773;48.868;10.730;2023-05-10T02:42:38;2.20;;;1.60;;
25982;SDS011;13773;48.868;10.730;2023-05-10T02:45:08;2.03;;;1.63;;
25982;SDS011;13773;48.868;10.730;2023-05-10T02:47:37;1.70;;;1.60;;
25982;SDS011;13773;48.868;10.730;2023-05-10T02:50:03;1.43;;;1.33;;
25982;SDS011;13773;48.868;10.730;2023-05-10T02:52:30;1.60;;;1.50;;
25982;SDS011;13773;48.868;10.730;2023-05-10T02:55:12;1.67;;;1.33;;
25982;SDS011;13773;48.868;10.730;2023-05-10T02:57:41;1.00;;;1.00;;
25982;SDS011;13773;48.868;10.730;2023-05-10T03:00:13;0.87;;;0.87;;
25982;SDS011;13773;48.868;10.730;2023-05-10T03:02:39;0.80;;;0.80;;
25982;SDS011;13773;48.868;10.730;2023-05-10T03:05:05;0.77;;;0.70;;
25982;SDS011;13773;48.868;10.730;2023-05-10T03:07:32;0.93;;;0.90;;
25982;SDS011;13773;48.868;10.730;2023-05-10T03:09:58;0.87;;;0.80;;
25982;SDS011;13773;48.868;10.730;2023-05-10T03:15:15;0.83;;;0.80;;
25982;SDS011;13773;48.868;10.730;2023-05-10T03:17:57;1.00;;;0.70;;
25982;SDS011;13773;48.868;10.730;2023-05-10T03:20:47;0.70;;;0.70;;
25982;SDS011;13773;48.868;10.730;2023-05-10T03:23:35;1.07;;;0.90;;
25982;SDS011;13773;48.868;10.730;2023-05-10T03:26:05;1.43;;;0.80;;
25982;SDS011;13773;48.868;10.730;2023-05-10T03:28:32;0.93;;;0.90;;
25982;SDS011;13773;48.868;10.730;2023-05-10T03:31:00;0.80;;;0.80;;
25982;SDS011;13773;48.868;10.730;2023-05-10T03:33:27;1.00;;;0.77;;
25982;SDS011;13773;48.868;10.730;2023-05-10T03:35:54;1.30;;;0.90;;
25982;SDS011;13773;48.868;10.730;2023-05-10T03:38:20;1.13;;;0.87;;
25982;SDS011;13773;48.868;10.730;2023-05-10T03:40:46;1.03;;;1.00;;
25982;SDS011;13773;48.868;10.730;2023-05-10T03:43:11;0.90;;;0.87;;
25982;SDS011;13773;48.868;10.730;2023-05-10T03:45:37;0.90;;;0.83;;
25982;SDS011;13773;48.868;10.730;2023-05-10T03:48:03;1.10;;;1.00;;
25982;SDS011;13773;48.868;10.730;2023-05-10T03:50:28;1.77;;;0.90;;
25982;SDS011;13773;48.868;10.730;2023-05-10T03:52:54;2.30;;;0.83;;
25982;SDS011;13773;48.868;10.730;2023-05-10T03:55:20;0.93;;;0.83;;
25982;SDS011;13773;48.868;10.730;2023-05-10T03:57:47;0.80;;;0.80;;
25982;SDS011;13773;48.868;10.730;2023-05-10T04:00:14;0.70;;;0.70;;
25982;SDS011;13773;48.868;10.730;2023-05-10T04:02:43;1.00;;;0.83;;
25982;SDS011;13773;48.868;10.730;2023-05-10T04:05:09;1.00;;;0.90;;
25982;SDS011;13773;48.868;10.730;2023-05-10T04:07:35;1.20;;;1.00;;
25982;SDS011;13773;48.868;10.730;2023-05-10T04:10:01;1.40;;;1.30;;
25982;SDS011;13773;48.868;10.730;2023-05-10T04:12:26;1.73;;;1.43;;
25982;SDS011;13773;48.868;10.730;2023-05-10T04:14:52;1.60;;;1.50;;
25982;SDS011;13773;48.868;10.730;2023-05-10T04:17:18;1.80;;;1.70;;
25982;SDS011;13773;48.868;10.730;2023-05-10T04:19:43;2.23;;;1.90;;
25982;SDS011;13773;48.868;10.730;2023-05-10T04:22:09;2.53;;;2.27;;
25982;SDS011;13773;48.868;10.730;2023-05-10T04:24:35;2.60;;;2.40;;
25982;SDS011;13773;48.868;10.730;2023-05-10T04:27:00;2.87;;;2.57;;
25982;SDS011;13773;48.868;10.730;2023-05-10T04:29:26;2.87;;;2.67;;
25982;SDS011;13773;48.868;10.730;2023-05-10T04:31:52;2.93;;;2.73;;
25982;SDS011;13773;48.868;10.730;2023-05-10T04:34:19;4.33;;;3.20;;
25982;SDS011;13773;48.868;10.730;2023-05-10T04:36:45;3.43;;;3.13;;
25982;SDS011;13773;48.868;10.730;2023-05-10T04:39:11;3.40;;;3.10;;
25982;SDS011;13773;48.868;10.730;2023-05-10T04:41:38;4.33;;;3.40;;
25982;SDS011;13773;48.868;10.730;2023-05-10T04:44:04;3.83;;;3.53;;
25982;SDS011;13773;48.868;10.730;2023-05-10T04:46:30;3.50;;;3.13;;
25982;SDS011;13773;48.868;10.730;2023-05-10T04:48:56;3.50;;;3.20;;
25982;SDS011;13773;48.868;10.730;2023-05-10T04:51:21;3.70;;;3.50;;
25982;SDS011;13773;48.868;10.730;2023-05-10T04:53:47;4.40;;;3.70;;
25982;SDS011;13773;48.868;10.730;2023-05-10T04:56:12;4.33;;;3.60;;
25982;SDS011;13773;48.868;10.730;2023-05-10T04:58:38;3.93;;;3.60;;
25982;SDS011;13773;48.868;10.730;2023-05-10T05:01:05;4.10;;;3.70;;
25982;SDS011;13773;48.868;10.730;2023-05-10T05:03:32;4.50;;;4.10;;
25982;SDS011;13773;48.868;10.730;2023-05-10T05:05:58;4.23;;;3.80;;
25982;SDS011;13773;48.868;10.730;2023-05-10T05:08:24;4.43;;;4.03;;
25982;SDS011;13773;48.868;10.730;2023-05-10T05:10:49;4.23;;;3.83;;
25982;SDS011;13773;48.868;10.730;2023-05-10T05:13:15;4.10;;;3.80;;
25982;SDS011;13773;48.868;10.730;2023-05-10T05:15:41;3.77;;;3.47;;
25982;SDS011;13773;48.868;10.730;2023-05-10T05:18:06;5.00;;;3.40;;
25982;SDS011;13773;48.868;10.730;2023-05-10T05:20:32;4.90;;;4.10;;
25982;SDS011;13773;48.868;10.730;2023-05-10T05:22:59;3.93;;;3.53;;
25982;SDS011;13773;48.868;10.730;2023-05-10T05:25:25;3.50;;;3.20;;
25982;SDS011;13773;48.868;10.730;2023-05-10T05:27:51;4.90;;;2.87;;
25982;SDS011;13773;48.868;10.730;2023-05-10T05:30:16;3.00;;;2.60;;
25982;SDS011;13773;48.868;10.730;2023-05-10T05:32:42;3.03;;;2.80;;
25982;SDS011;13773;48.868;10.730;2023-05-10T05:35:08;2.70;;;2.50;;
25982;SDS011;13773;48.868;10.730;2023-05-10T05:37:34;2.90;;;2.70;;
25982;SDS011;13773;48.868;10.730;2023-05-10T05:40:00;3.53;;;2.87;;
25982;SDS011;13773;48.868;10.730;2023-05-10T05:42:26;4.60;;;2.67;;
25982;SDS011;13773;48.868;10.730;2023-05-10T05:44:52;4.03;;;3.50;;
25982;SDS011;13773;48.868;10.730;2023-05-10T05:47:18;4.90;;;3.37;;
25982;SDS011;13773;48.868;10.730;2023-05-10T05:49:43;3.87;;;3.10;;
25982;SDS011;13773;48.868;10.730;2023-05-10T05:52:12;3.30;;;2.93;;
25982;SDS011;13773;48.868;10.730;2023-05-10T05:54:38;3.80;;;3.50;;
25982;SDS011;13773;48.868;10.730;2023-05-10T05:57:04;3.33;;;3.00;;
25982;SDS011;13773;48.868;10.730;2023-05-10T05:59:42;3.50;;;3.20;;
25982;SDS011;13773;48.868;10.730;2023-05-10T06:02:09;4.00;;;3.70;;
25982;SDS011;13773;48.868;10.730;2023-05-10T06:04:35;4.20;;;3.87;;
25982;SDS011;13773;48.868;10.730;2023-05-10T06:07:01;4.40;;;4.00;;
25982;SDS011;13773;48.868;10.730;2023-05-10T06:09:26;5.17;;;3.60;;
25982;SDS011;13773;48.868;10.730;2023-05-10T06:11:52;3.83;;;3.40;;
25982;SDS011;13773;48.868;10.730;2023-05-10T06:14:22;4.17;;;3.77;;
25982;SDS011;13773;48.868;10.730;2023-05-10T06:16:47;4.97;;;3.60;;
25982;SDS011;13773;48.868;10.730;2023-05-10T06:19:13;4.03;;;3.63;;
25982;SDS011;13773;48.868;10.730;2023-05-10T06:21:39;3.63;;;3.33;;
25982;SDS011;13773;48.868;10.730;2023-05-10T06:24:05;4.43;;;3.80;;
25982;SDS011;13773;48.868;10.730;2023-05-10T06:26:31;3.60;;;3.30;;
25982;SDS011;13773;48.868;10.730;2023-05-10T06:28:57;4.10;;;3.80;;
25982;SDS011;13773;48.868;10.730;2023-05-10T06:31:23;3.77;;;3.47;;
25982;SDS011;13773;48.868;10.730;2023-05-10T06:33:49;3.73;;;3.30;;
25982;SDS011;13773;48.868;10.730;2023-05-10T06:36:17;3.20;;;2.90;;
25982;SDS011;13773;48.868;10.730;2023-05-10T06:38:51;3.53;;;3.10;;
25982;SDS011;13773;48.868;10.730;2023-05-10T06:41:17;3.67;;;3.37;;
25982;SDS011;13773;48.868;10.730;2023-05-10T06:43:43;4.20;;;3.03;;
25982;SDS011;13773;48.868;10.730;2023-05-10T06:46:09;3.30;;;3.00;;
25982;SDS011;13773;48.868;10.730;2023-05-10T06:48:35;4.00;;;2.90;;
25982;SDS011;13773;48.868;10.730;2023-05-10T06:51:00;2.93;;;2.50;;
25982;SDS011;13773;48.868;10.730;2023-05-10T06:53:26;2.23;;;2.13;;
25982;SDS011;13773;48.868;10.730;2023-05-10T06:55:52;3.37;;;2.27;;
25982;SDS011;13773;48.868;10.730;2023-05-10T06:58:18;2.47;;;2.27;;
25982;SDS011;13773;48.868;10.730;2023-05-10T07:00:43;2.40;;;2.17;;
25982;SDS011;13773;48.868;10.730;2023-05-10T07:03:10;3.07;;;2.17;;
25982;SDS011;13773;48.868;10.730;2023-05-10T07:05:36;2.30;;;2.10;;
25982;SDS011;13773;48.868;10.730;2023-05-10T07:08:01;2.93;;;2.73;;
25982;SDS011;13773;48.868;10.730;2023-05-10T07:10:27;2.83;;;2.63;;
25982;SDS011;13773;48.868;10.730;2023-05-10T07:13:02;3.63;;;2.80;;
25982;SDS011;13773;48.868;10.730;2023-05-10T07:15:34;4.20;;;2.70;;
25982;SDS011;13773;48.868;10.730;2023-05-10T07:18:06;3.00;;;2.70;;
25982;SDS011;13773;48.868;10.730;2023-05-10T07:20:39;3.00;;;2.70;;
25982;SDS011;13773;48.868;10.730;2023-05-10T07:23:08;3.20;;;2.90;;
25982;SDS011;13773;48.868;10.730;2023-05-10T07:25:37;5.03;;;3.37;;
25982;SDS011;13773;48.868;10.730;2023-05-10T07:28:10;3.53;;;2.90;;
25982;SDS011;13773;48.868;10.730;2023-05-10T07:30:37;3.63;;;2.70;;
25982;SDS011;13773;48.868;10.730;2023-05-10T07:33:06;3.60;;;3.07;;
25982;SDS011;13773;48.868;10.730;2023-05-10T07:35:36;3.40;;;2.83;;
25982;SDS011;13773;48.868;10.730;2023-05-10T07:38:18;3.80;;;2.93;;
25982;SDS011;13773;48.868;10.730;2023-05-10T07:40:44;3.03;;;2.70;;
25982;SDS011;13773;48.868;10.730;2023-05-10T07:43:10;3.63;;;2.63;;
25982;SDS011;13773;48.868;10.730;2023-05-10T07:45:39;3.80;;;2.13;;
25982;SDS011;13773;48.868;10.730;2023-05-10T07:48:05;2.10;;;1.90;;
25982;SDS011;13773;48.868;10.730;2023-05-10T07:50:34;3.13;;;2.40;;
25982;SDS011;13773;48.868;10.730;2023-05-10T07:52:59;1.80;;;1.70;;
25982;SDS011;13773;48.868;10.730;2023-05-10T07:55:36;4.00;;;2.00;;
25982;SDS011;13773;48.868;10.730;2023-05-10T07:58:06;3.37;;;1.80;;
25982;SDS011;13773;48.868;10.730;2023-05-10T08:00:32;3.70;;;2.27;;
25982;SDS011;13773;48.868;10.730;2023-05-10T08:02:57;1.70;;;1.60;;
25982;SDS011;13773;48.868;10.730;2023-05-10T08:05:35;2.30;;;2.10;;
25982;SDS011;13773;48.868;10.730;2023-05-10T08:08:02;5.47;;;2.00;;
25982;SDS011;13773;48.868;10.730;2023-05-10T08:10:30;4.43;;;2.13;;
25982;SDS011;13773;48.868;10.730;2023-05-10T08:12:56;2.70;;;1.70;;
25982;SDS011;13773;48.868;10.730;2023-05-10T08:15:23;2.40;;;1.60;;
25982;SDS011;13773;48.868;10.730;2023-05-10T08:17:50;1.80;;;1.70;;
25982;SDS011;13773;48.868;10.730;2023-05-10T08:20:16;2.50;;;1.80;;
25982;SDS011;13773;48.868;10.730;2023-05-10T08:22:44;2.33;;;1.73;;
25982;SDS011;13773;48.868;10.730;2023-05-10T08:25:10;2.53;;;1.70;;
25982;SDS011;13773;48.868;10.730;2023-05-10T08:27:37;2.50;;;1.60;;
25982;SDS011;13773;48.868;10.730;2023-05-10T08:30:07;2.73;;;2.03;;
25982;SDS011;13773;48.868;10.730;2023-05-10T08:32:34;1.90;;;1.70;;
25982;SDS011;13773;48.868;10.730;2023-05-10T08:35:00;3.37;;;2.00;;
25982;SDS011;13773;48.868;10.730;2023-05-10T08:37:32;4.10;;;2.10;;
25982;SDS011;13773;48.868;10.730;2023-05-10T08:43:13;2.03;;;1.70;;
25982;SDS011;13773;48.868;10.730;2023-05-10T08:45:47;3.23;;;1.60;;
25982;SDS011;13773;48.868;10.730;2023-05-10T08:48:31;3.70;;;1.70;;
25982;SDS011;13773;48.868;10.730;2023-05-10T08:51:09;3.40;;;1.37;;
25982;SDS011;13773;48.868;10.730;2023-05-10T08:53:37;2.13;;;1.23;;
25982;SDS011;13773;48.868;10.730;2023-05-10T08:56:04;1.40;;;1.20;;
25982;SDS011;13773;48.868;10.730;2023-05-10T08:58:30;2.20;;;1.60;;
25982;SDS011;13773;48.868;10.730;2023-05-10T09:00:56;2.53;;;1.17;;
25982;SDS011;13773;48.868;10.730;2023-05-10T09:03:22;2.57;;;1.40;;
25982;SDS011;13773;48.868;10.730;2023-05-10T09:05:48;2.03;;;1.20;;
25982;SDS011;13773;48.868;10.730;2023-05-10T09:08:15;2.07;;;1.10;;
25982;SDS011;13773;48.868;10.730;2023-05-10T09:10:42;2.60;;;1.20;;
25982;SDS011;13773;48.868;10.730;2023-05-10T09:13:09;1.40;;;1.30;;
25982;SDS011;13773;48.868;10.730;2023-05-10T09:15:39;1.40;;;1.30;;
25982;SDS011;13773;48.868;10.730;2023-05-10T09:18:05;2.03;;;1.40;;
25982;SDS011;13773;48.868;10.730;2023-05-10T09:20:31;3.73;;;1.30;;
25982;SDS011;13773;48.868;10.730;2023-05-10T09:22:57;2.27;;;1.30;;
25982;SDS011;13773;48.868;10.730;2023-05-10T09:25:22;1.63;;;1.00;;
25982;SDS011;13773;48.868;10.730;2023-05-10T09:27:48;2.73;;;1.20;;
25982;SDS011;13773;48.868;10.730;2023-05-10T09:30:17;2.23;;;1.60;;
25982;SDS011;13773;48.868;10.730;2023-05-10T09:32:56;2.70;;;1.30;;
25982;SDS011;13773;48.868;10.730;2023-05-10T09:35:23;1.43;;;1.17;;
25982;SDS011;13773;48.868;10.730;2023-05-10T09:37:51;1.30;;;1.00;;
25982;SDS011;13773;48.868;10.730;2023-05-10T09:40:24;1.30;;;1.10;;
25982;SDS011;13773;48.868;10.730;2023-05-10T09:42:55;2.37;;;1.63;;
25982;SDS011;13773;48.868;10.730;2023-05-10T09:45:22;2.40;;;1.97;;
25982;SDS011;13773;48.868;10.730;2023-05-10T09:47:48;1.93;;;1.63;;
25982;SDS011;13773;48.868;10.730;2023-05-10T09:50:14;2.30;;;1.87;;
25982;SDS011;13773;48.868;10.730;2023-05-10T09:52:50;2.40;;;2.03;;
25982;SDS011;13773;48.868;10.730;2023-05-10T09:55:24;2.40;;;1.90;;
25982;SDS011;13773;48.868;10.730;2023-05-10T09:58:03;1.90;;;1.80;;
25982;SDS011;13773;48.868;10.730;2023-05-10T10:00:34;1.47;;;1.37;;
25982;SDS011;13773;48.868;10.730;2023-05-10T10:03:04;1.43;;;1.33;;
25982;SDS011;13773;48.868;10.730;2023-05-10T10:05:31;4.53;;;1.60;;
25982;SDS011;13773;48.868;10.730;2023-05-10T10:08:02;1.50;;;1.40;;
25982;SDS011;13773;48.868;10.730;2023-05-10T10:10:30;1.50;;;1.40;;
25982;SDS011;13773;48.868;10.730;2023-05-10T10:12:57;2.13;;;1.47;;
25982;SDS011;13773;48.868;10.730;2023-05-10T10:15:24;1.40;;;1.30;;
25982;SDS011;13773;48.868;10.730;2023-05-10T10:17:50;2.50;;;1.53;;
25982;SDS011;13773;48.868;10.730;2023-05-10T10:20:18;1.70;;;1.37;;
25982;SDS011;13773;48.868;10.730;2023-05-10T10:22:44;1.77;;;1.00;;
25982;SDS011;13773;48.868;10.730;2023-05-10T10:25:11;3.23;;;1.20;;
25982;SDS011;13773;48.868;10.730;2023-05-10T10:36:00;3.73;;;2.03;;
25982;SDS011;13773;48.868;10.730;2023-05-10T10:41:22;1.70;;;1.20;;
25982;SDS011;13773;48.868;10.730;2023-05-10T10:55:07;1.83;;;1.10;;
25982;SDS011;13773;48.868;10.730;2023-05-10T10:57:54;2.60;;;1.47;;
25982;SDS011;13773;48.868;10.730;2023-05-10T11:00:31;1.20;;;1.10;;
25982;SDS011;13773;48.868;10.730;2023-05-10T11:08:10;1.50;;;0.90;;
25982;SDS011;13773;48.868;10.730;2023-05-10T11:10:38;1.30;;;1.13;;
25982;SDS011;13773;48.868;10.730;2023-05-10T11:13:08;1.80;;;1.20;;
25982;SDS011;13773;48.868;10.730;2023-05-10T11:15:36;2.10;;;1.67;;
25982;SDS011;13773;48.868;10.730;2023-05-10T11:20:51;1.23;;;1.10;;
25982;SDS011;13773;48.868;10.730;2023-05-10T11:23:20;1.63;;;1.10;;
25982;SDS011;13773;48.868;10.730;2023-05-10T11:25:46;1.50;;;1.40;;
25982;SDS011;13773;48.868;10.730;2023-05-10T11:28:14;2.27;;;1.27;;
25982;SDS011;13773;48.868;10.730;2023-05-10T11:30:43;1.80;;;1.20;;
25982;SDS011;13773;48.868;10.730;2023-05-10T11:33:09;2.50;;;1.30;;
25982;SDS011;13773;48.868;10.730;2023-05-10T11:35:40;1.30;;;1.07;;
25982;SDS011;13773;48.868;10.730;2023-05-10T11:38:09;2.17;;;1.30;;
25982;SDS011;13773;48.868;10.730;2023-05-10T11:40:36;2.67;;;1.20;;
25982;SDS011;13773;48.868;10.730;2023-05-10T11:43:02;1.30;;;1.20;;
25982;SDS011;13773;48.868;10.730;2023-05-10T11:45:31;1.23;;;1.13;;
25982;SDS011;13773;48.868;10.730;2023-05-10T11:47:58;1.50;;;1.30;;
25982;SDS011;13773;48.868;10.730;2023-05-10T11:50:24;2.10;;;1.03;;
25982;SDS011;13773;48.868;10.730;2023-05-10T11:53:00;1.97;;;1.00;;
25982;SDS011;13773;48.868;10.730;2023-05-10T11:55:25;0.70;;;0.70;;
25982;SDS011;13773;48.868;10.730;2023-05-10T11:57:51;1.00;;;0.90;;
25982;SDS011;13773;48.868;10.730;2023-05-10T12:00:20;1.50;;;0.80;;
25982;SDS011;13773;48.868;10.730;2023-05-10T12:02:46;0.63;;;0.63;;
25982;SDS011;13773;48.868;10.730;2023-05-10T12:05:13;3.20;;;1.10;;
25982;SDS011;13773;48.868;10.730;2023-05-10T12:07:39;1.97;;;1.07;;
25982;SDS011;13773;48.868;10.730;2023-05-10T12:10:08;1.57;;;0.80;;
25982;SDS011;13773;48.868;10.730;2023-05-10T12:12:41;1.27;;;1.17;;
25982;SDS011;13773;48.868;10.730;2023-05-10T12:15:20;3.00;;;1.10;;
25982;SDS011;13773;48.868;10.730;2023-05-10T12:17:48;2.10;;;1.00;;
25982;SDS011;13773;48.868;10.730;2023-05-10T12:25:12;2.17;;;1.47;;
25982;SDS011;13773;48.868;10.730;2023-05-10T12:27:37;1.30;;;0.80;;
25982;SDS011;13773;48.868;10.730;2023-05-10T12:30:03;0.90;;;0.90;;
25982;SDS011;13773;48.868;10.730;2023-05-10T12:32:43;1.40;;;0.63;;
25982;SDS011;13773;48.868;10.730;2023-05-10T12:35:09;1.47;;;0.40;;
25982;SDS011;13773;48.868;10.730;2023-05-10T12:37:35;0.80;;;0.80;;
25982;SDS011;13773;48.868;10.730;2023-05-10T12:40:06;1.33;;;0.70;;
25982;SDS011;13773;48.868;10.730;2023-05-10T12:42:34;0.90;;;0.80;;
25982;SDS011;13773;48.868;10.730;2023-05-10T12:45:01;0.70;;;0.70;;
25982;SDS011;13773;48.868;10.730;2023-05-10T12:47:27;1.00;;;0.80;;
25982;SDS011;13773;48.868;10.730;2023-05-10T12:49:53;1.10;;;1.03;;
25982;SDS011;13773;48.868;10.730;2023-05-10T12:52:19;1.30;;;1.20;;
25982;SDS011;13773;48.868;10.730;2023-05-10T12:54:45;1.40;;;1.20;;
25982;SDS011;13773;48.868;10.730;2023-05-10T12:57:11;2.20;;;1.17;;
25982;SDS011;13773;48.868;10.730;2023-05-10T12:59:38;1.70;;;1.40;;
25982;SDS011;13773;48.868;10.730;2023-05-10T13:02:03;1.30;;;1.20;;
25982;SDS011;13773;48.868;10.730;2023-05-10T13:04:29;1.10;;;1.00;;
25982;SDS011;13773;48.868;10.730;2023-05-10T13:06:55;1.13;;;1.10;;
25982;SDS011;13773;48.868;10.730;2023-05-10T13:09:23;1.70;;;1.60;;
25982;SDS011;13773;48.868;10.730;2023-05-10T13:11:50;2.10;;;1.53;;
25982;SDS011;13773;48.868;10.730;2023-05-10T13:14:18;1.80;;;1.70;;
25982;SDS011;13773;48.868;10.730;2023-05-10T13:16:45;3.43;;;1.73;;
25982;SDS011;13773;48.868;10.730;2023-05-10T13:19:12;1.53;;;1.43;;
25982;SDS011;13773;48.868;10.730;2023-05-10T13:21:38;1.83;;;1.50;;
25982;SDS011;13773;48.868;10.730;2023-05-10T13:24:05;1.93;;;1.80;;
25982;SDS011;13773;48.868;10.730;2023-05-10T13:26:32;1.70;;;1.60;;
25982;SDS011;13773;48.868;10.730;2023-05-10T13:28:58;1.73;;;1.63;;
25982;SDS011;13773;48.868;10.730;2023-05-10T13:31:23;1.90;;;1.50;;
25982;SDS011;13773;48.868;10.730;2023-05-10T13:33:49;1.50;;;1.40;;
25982;SDS011;13773;48.868;10.730;2023-05-10T13:36:15;1.60;;;1.50;;
25982;SDS011;13773;48.868;10.730;2023-05-10T13:38:41;1.27;;;1.20;;
25982;SDS011;13773;48.868;10.730;2023-05-10T13:41:06;1.67;;;1.50;;
25982;SDS011;13773;48.868;10.730;2023-05-10T13:43:32;1.23;;;1.13;;
25982;SDS011;13773;48.868;10.730;2023-05-10T13:45:58;4.43;;;1.50;;
25982;SDS011;13773;48.868;10.730;2023-05-10T13:48:23;4.60;;;2.40;;
25982;SDS011;13773;48.868;10.730;2023-05-10T13:50:49;2.70;;;1.80;;
25982;SDS011;13773;48.868;10.730;2023-05-10T13:53:15;6.70;;;3.60;;
25982;SDS011;13773;48.868;10.730;2023-05-10T13:55:41;2.20;;;2.00;;
25982;SDS011;13773;48.868;10.730;2023-05-10T13:58:06;2.10;;;1.67;;
25982;SDS011;13773;48.868;10.730;2023-05-10T14:00:32;2.20;;;1.80;;
25982;SDS011;13773;48.868;10.730;2023-05-10T14:02:58;2.30;;;2.03;;
25982;SDS011;13773;48.868;10.730;2023-05-10T14:05:24;2.90;;;2.47;;
25982;SDS011;13773;48.868;10.730;2023-05-10T14:07:50;2.50;;;2.30;;
25982;SDS011;13773;48.868;10.730;2023-05-10T14:10:16;2.80;;;2.50;;
25982;SDS011;13773;48.868;10.730;2023-05-10T14:12:41;1.60;;;1.50;;
25982;SDS011;13773;48.868;10.730;2023-05-10T14:15:07;1.60;;;1.50;;
25982;SDS011;13773;48.868;10.730;2023-05-10T14:17:35;1.40;;;1.30;;
25982;SDS011;13773;48.868;10.730;2023-05-10T14:20:01;0.90;;;0.70;;
25982;SDS011;13773;48.868;10.730;2023-05-10T14:22:27;1.60;;;1.07;;
25982;SDS011;13773;48.868;10.730;2023-05-10T14:24:53;1.60;;;1.20;;
25982;SDS011;13773;48.868;10.730;2023-05-10T14:27:18;2.33;;;0.90;;
25982;SDS011;13773;48.868;10.730;2023-05-10T14:29:44;2.33;;;1.10;;
25982;SDS011;13773;48.868;10.730;2023-05-10T14:32:10;1.20;;;1.10;;
25982;SDS011;13773;48.868;10.730;2023-05-10T14:34:35;1.57;;;1.23;;
25982;SDS011;13773;48.868;10.730;2023-05-10T14:37:01;2.13;;;1.20;;
25982;SDS011;13773;48.868;10.730;2023-05-10T14:39:27;2.13;;;1.10;;
25982;SDS011;13773;48.868;10.730;2023-05-10T14:41:55;1.23;;;1.13;;
25982;SDS011;13773;48.868;10.730;2023-05-10T14:44:21;1.20;;;1.00;;
25982;SDS011;13773;48.868;10.730;2023-05-10T14:46:46;1.63;;;0.70;;
25982;SDS011;13773;48.868;10.730;2023-05-10T14:49:13;1.20;;;0.80;;
25982;SDS011;13773;48.868;10.730;2023-05-10T14:51:39;1.00;;;0.80;;
25982;SDS011;13773;48.868;10.730;2023-05-10T14:54:04;1.13;;;1.10;;
25982;SDS011;13773;48.868;10.730;2023-05-10T14:56:31;1.40;;;1.20;;
25982;SDS011;13773;48.868;10.730;2023-05-10T14:58:56;1.97;;;1.17;;
25982;SDS011;13773;48.868;10.730;2023-05-10T15:01:22;2.00;;;1.07;;
25982;SDS011;13773;48.868;10.730;2023-05-10T15:03:48;1.33;;;1.10;;
25982;SDS011;13773;48.868;10.730;2023-05-10T15:06:14;1.43;;;1.00;;
25982;SDS011;13773;48.868;10.730;2023-05-10T15:08:41;4.33;;;1.20;;
25982;SDS011;13773;48.868;10.730;2023-05-10T15:11:06;1.00;;;0.70;;
25982;SDS011;13773;48.868;10.730;2023-05-10T15:13:32;1.20;;;0.90;;
25982;SDS011;13773;48.868;10.730;2023-05-10T15:15:58;2.20;;;1.10;;
25982;SDS011;13773;48.868;10.730;2023-05-10T15:18:23;3.30;;;1.10;;
25982;SDS011;13773;48.868;10.730;2023-05-10T15:20:49;2.20;;;1.17;;
25982;SDS011;13773;48.868;10.730;2023-05-10T15:23:15;1.60;;;1.00;;
25982;SDS011;13773;48.868;10.730;2023-05-10T15:25:40;2.63;;;0.97;;
25982;SDS011;13773;48.868;10.730;2023-05-10T15:28:06;1.17;;;1.07;;
25982;SDS011;13773;48.868;10.730;2023-05-10T15:30:32;1.27;;;1.10;;